Time;durP1;ratioP1;P1;durP2;ratioP2;P2;SDS_P1;SDS_P2;PMS_P1;PMS_P2;Temp;Humidity;BMP_temperature;BMP_pressure;BME280_temperature;BME280_humidity;BME280_pressure;Samples;Min_cycle;Max_cycle;Signal;HPM_P1;HPM_P2
2022/07/10 00:01:47;;;;;;;;;0.20;0.20;;;;;18.43;100.00;102299.31;4948356;28;44758;-87
2022/07/10 00:04:12;;;;;;;;;6.00;5.00;;;;;18.39;100.00;102289.75;4946220;28;45086;-87
2022/07/10 00:06:40;;;;;;;;;4.50;3.75;;;;;18.34;100.00;102308.91;4946945;28;44791;-88
2022/07/10 00:09:06;;;;;;;;;4.00;4.00;;;;;18.27;100.00;102286.13;4956606;28;44643;-87
2022/07/10 00:11:31;;;;;;;;;2.25;1.25;;;;;18.17;100.00;102290.47;4965870;28;44924;-84
2022/07/10 00:13:57;;;;;;;;;3.00;3.00;;;;;18.21;100.00;102310.81;4959128;28;46531;-86
2022/07/10 00:16:24;;;;;;;;;5.75;4.25;;;;;18.15;100.00;102305.88;4954591;28;44768;-86
2022/07/10 00:18:50;;;;;;;;;6.20;4.20;;;;;18.12;100.00;102311.47;4958533;28;44821;-88
2022/07/10 00:21:16;;;;;;;;;3.00;3.00;;;;;18.14;100.00;102302.34;4972158;28;44906;-87
2022/07/10 00:23:41;;;;;;;;;4.40;3.80;;;;;18.10;100.00;102305.38;4964268;28;45177;-88
2022/07/10 00:26:07;;;;;;;;;6.75;6.50;;;;;18.02;100.00;102305.91;4961191;28;45286;-88
2022/07/10 00:28:32;;;;;;;;;4.00;4.00;;;;;18.01;100.00;102298.81;4961932;28;45382;-87
2022/07/10 00:30:58;;;;;;;;;4.00;4.00;;;;;18.02;100.00;102303.22;4961270;28;45300;-87
2022/07/10 00:33:23;;;;;;;;;1.00;1.00;;;;;17.87;100.00;102310.59;4964096;28;45270;-85
2022/07/10 00:35:48;;;;;;;;;3.25;3.25;;;;;17.89;100.00;102310.47;4959257;28;45377;-87
2022/07/10 00:38:14;;;;;;;;;4.50;4.50;;;;;17.91;100.00;102305.84;4965103;28;44780;-87
2022/07/10 00:40:40;;;;;;;;;5.25;4.25;;;;;17.82;100.00;102315.44;4968877;28;44827;-87
2022/07/10 00:43:09;;;;;;;;;4.00;2.25;;;;;17.81;100.00;102307.50;4982707;28;48413;-89
2022/07/10 00:45:34;;;;;;;;;4.20;3.00;;;;;17.81;100.00;102319.09;4963392;28;44959;-87
2022/07/10 00:48:00;;;;;;;;;4.25;3.00;;;;;17.76;100.00;102294.38;4978105;28;45477;-87
2022/07/10 00:50:25;;;;;;;;;6.25;2.50;;;;;17.66;100.00;102310.28;4964526;28;45307;-88
2022/07/10 00:52:51;;;;;;;;;4.50;3.25;;;;;17.61;100.00;102296.31;4967856;28;45306;-86
2022/07/10 00:55:17;;;;;;;;;4.25;4.00;;;;;17.59;100.00;102305.44;4967310;28;44811;-87
2022/07/10 00:57:42;;;;;;;;;3.00;3.00;;;;;17.61;100.00;102312.44;4967085;28;44801;-88
2022/07/10 01:00:11;;;;;;;;;11.50;5.50;;;;;17.56;100.00;102293.09;4965326;28;44965;-87
2022/07/10 01:02:41;;;;;;;;;4.80;4.80;;;;;17.56;100.00;102297.63;4966542;28;45297;-88
2022/07/10 01:05:06;;;;;;;;;3.40;3.40;;;;;17.56;100.00;102303.00;4968395;28;45386;-87
2022/07/10 01:07:32;;;;;;;;;6.25;6.25;;;;;17.55;100.00;102294.06;4969955;28;44949;-88
2022/07/10 01:09:59;;;;;;;;;2.75;2.75;;;;;17.52;100.00;102296.97;4968489;28;45338;-87
2022/07/10 01:12:25;;;;;;;;;4.20;3.40;;;;;17.50;100.00;102290.81;4968844;28;45095;-87
2022/07/10 01:14:51;;;;;;;;;4.40;3.00;;;;;17.46;100.00;102295.59;4971363;28;44799;-88
2022/07/10 01:17:17;;;;;;;;;4.00;4.00;;;;;17.42;100.00;102294.09;4986188;28;44776;-88
2022/07/10 01:19:42;;;;;;;;;5.50;4.00;;;;;17.39;100.00;102293.44;4965205;28;44921;-89
2022/07/10 01:22:08;;;;;;;;;5.00;5.00;;;;;17.33;100.00;102291.19;4964266;28;45259;-88
2022/07/10 01:24:34;;;;;;;;;3.25;2.00;;;;;17.25;100.00;102291.72;4961609;28;45467;-87
2022/07/10 01:26:59;;;;;;;;;6.40;6.40;;;;;17.21;100.00;102320.63;4963208;28;44779;-88
2022/07/10 01:29:25;;;;;;;;;11.75;9.00;;;;;17.13;100.00;102298.81;4978588;28;45411;-88
2022/07/10 01:31:52;;;;;;;;;5.00;3.75;;;;;17.12;100.00;102301.63;4966126;28;45382;-88
2022/07/10 01:34:18;;;;;;;;;6.20;6.20;;;;;17.09;100.00;102299.13;4964061;28;44796;-87
2022/07/10 01:36:44;;;;;;;;;3.00;3.00;;;;;17.03;100.00;102294.19;4967424;28;45341;-87
2022/07/10 01:39:09;;;;;;;;;7.50;7.50;;;;;17.00;100.00;102294.41;4983000;28;45271;-88
2022/07/10 01:41:34;;;;;;;;;6.75;5.00;;;;;16.98;100.00;102294.50;4966366;28;45220;-89
2022/07/10 01:44:01;;;;;;;;;5.75;5.75;;;;;16.96;100.00;102297.28;4966998;28;45515;-87
2022/07/10 01:46:26;;;;;;;;;11.50;7.25;;;;;16.90;100.00;102300.41;4969333;28;45180;-86
2022/07/10 01:48:52;;;;;;;;;6.75;6.75;;;;;16.80;100.00;102299.31;4965057;28;45235;-85
2022/07/10 01:51:18;;;;;;;;;4.50;4.50;;;;;16.83;100.00;102304.50;4963054;28;45313;-87
2022/07/10 01:53:43;;;;;;;;;4.00;2.75;;;;;16.81;100.00;102286.75;4967947;28;44692;-87
2022/07/10 01:56:11;;;;;;;;;4.25;4.00;;;;;16.82;100.00;102308.09;4992975;28;44831;-86
2022/07/10 01:58:36;;;;;;;;;3.00;1.75;;;;;16.68;100.00;102290.25;4969202;28;44840;-85
2022/07/10 02:01:03;;;;;;;;;6.50;6.50;;;;;16.66;100.00;102296.66;4967420;28;45130;-86
2022/07/10 02:06:13;;;;;;;;;3.40;3.40;;;;;16.62;100.00;102305.88;4969951;28;44776;-86
2022/07/10 02:08:38;;;;;;;;;4.00;4.00;;;;;16.60;100.00;102299.78;4972649;28;44916;-86
2022/07/10 02:11:04;;;;;;;;;6.00;5.75;;;;;16.55;100.00;102299.22;4974855;28;45262;-87
2022/07/10 02:13:30;;;;;;;;;7.75;6.00;;;;;16.56;100.00;102300.94;4971506;28;44807;-87
2022/07/10 02:15:55;;;;;;;;;8.00;8.00;;;;;16.55;100.00;102313.50;4964557;28;45338;-87
2022/07/10 02:18:22;;;;;;;;;4.00;4.00;;;;;16.53;100.00;102310.03;4982246;28;44975;-89
2022/07/10 02:20:48;;;;;;;;;5.00;5.00;;;;;16.48;100.00;102322.91;4966728;28;46892;-88
2022/07/10 02:23:15;;;;;;;;;2.20;2.20;;;;;16.43;100.00;102312.47;4970572;28;44796;-86
2022/07/10 02:25:40;;;;;;;;;2.60;2.60;;;;;16.36;100.00;102319.22;4982034;28;44774;-88
2022/07/10 02:28:08;;;;;;;;;7.25;5.50;;;;;16.32;100.00;102304.28;4966057;28;45419;-87
2022/07/10 02:30:33;;;;;;;;;4.00;4.00;;;;;16.32;100.00;102303.44;4963997;28;45231;-86
2022/07/10 02:32:59;;;;;;;;;3.00;3.00;;;;;16.33;100.00;102302.47;4966367;28;44873;-87
2022/07/10 02:35:24;;;;;;;;;6.00;4.50;;;;;16.31;100.00;102302.59;4964118;28;45126;-87
2022/07/10 02:37:50;;;;;;;;;6.50;4.75;;;;;16.28;100.00;102289.38;4964626;28;44736;-88
2022/07/10 02:40:15;;;;;;;;;1.75;1.75;;;;;16.21;100.00;102293.44;4963074;28;46857;-87
2022/07/10 02:42:40;;;;;;;;;6.00;4.00;;;;;16.21;100.00;102292.56;4966034;28;44819;-87
2022/07/10 02:45:07;;;;;;;;;5.00;5.00;;;;;16.20;100.00;102294.41;4964216;28;45354;-88
2022/07/10 02:47:33;;;;;;;;;5.00;3.50;;;;;16.17;100.00;102281.19;4961934;28;45571;-88
2022/07/10 02:49:58;;;;;;;;;6.75;6.75;;;;;16.17;100.00;102282.03;4960710;28;45055;-86
2022/07/10 02:52:23;;;;;;;;;7.25;6.00;;;;;16.11;100.00;102274.41;4962618;28;44926;-87
2022/07/10 02:54:50;;;;;;;;;3.75;3.50;;;;;16.08;100.00;102274.59;4978370;28;45312;-87
2022/07/10 02:57:16;;;;;;;;;3.75;3.75;;;;;16.07;100.00;102269.34;4961691;28;44771;-88
2022/07/10 02:59:41;;;;;;;;;5.25;4.25;;;;;16.07;100.00;102267.50;4963515;28;45196;-88
2022/07/10 03:02:07;;;;;;;;;6.50;5.75;;;;;16.04;100.00;102270.38;4961005;28;44816;-87
2022/07/10 03:04:32;;;;;;;;;7.75;5.75;;;;;16.02;100.00;102272.31;4967300;28;45432;-88
2022/07/10 03:06:58;;;;;;;;;2.50;2.50;;;;;16.00;100.00;102276.91;4970280;28;44814;-88
2022/07/10 03:09:25;;;;;;;;;5.75;5.00;;;;;15.99;100.00;102274.34;4971802;28;45541;-87
2022/07/10 03:11:50;;;;;;;;;5.80;5.00;;;;;16.01;100.00;102272.44;4970907;28;44852;-86
2022/07/10 03:14:17;;;;;;;;;4.00;4.00;;;;;15.99;100.00;102280.56;4973352;28;45453;-87
2022/07/10 03:16:42;;;;;;;;;6.25;6.25;;;;;15.98;100.00;102275.31;4983974;28;44923;-88
2022/07/10 03:19:07;;;;;;;;;5.50;5.00;;;;;15.98;100.00;102286.03;4966293;28;45314;-88
2022/07/10 03:21:33;;;;;;;;;3.00;3.00;;;;;15.92;100.00;102273.88;4963795;28;45258;-88
2022/07/10 03:23:58;;;;;;;;;6.00;4.00;;;;;15.88;100.00;102264.31;4962024;28;45270;-88
2022/07/10 03:26:24;;;;;;;;;6.00;5.00;;;;;15.87;100.00;102278.69;4964718;28;44783;-87
2022/07/10 03:28:49;;;;;;;;;3.50;1.50;;;;;15.84;100.00;102263.66;4963252;28;45431;-88
2022/07/10 03:31:14;;;;;;;;;5.50;4.00;;;;;15.83;100.00;102272.66;4963920;28;45430;-87
2022/07/10 03:33:40;;;;;;;;;7.25;7.25;;;;;15.80;100.00;102262.13;4961965;28;44897;-87
2022/07/10 03:36:06;;;;;;;;;4.00;4.00;;;;;15.73;100.00;102263.50;4961778;28;44697;-87
2022/07/10 03:38:31;;;;;;;;;3.25;3.25;;;;;15.66;100.00;102263.03;4961062;28;45367;-84
2022/07/10 03:40:57;;;;;;;;;8.00;5.25;;;;;15.66;100.00;102265.72;4964002;28;44729;-87
2022/07/10 03:43:22;;;;;;;;;4.00;3.50;;;;;15.65;100.00;102266.66;4965750;28;44834;-87
2022/07/10 03:45:47;;;;;;;;;2.75;2.50;;;;;15.66;100.00;102273.75;4965363;28;45425;-87
2022/07/10 03:48:13;;;;;;;;;7.75;2.50;;;;;15.65;100.00;102284.53;4982917;28;46533;-88
2022/07/10 03:50:38;;;;;;;;;4.00;4.00;;;;;15.63;100.00;102271.25;4970080;28;44758;-87
2022/07/10 03:53:03;;;;;;;;;5.50;3.50;;;;;15.63;100.00;102275.72;4968651;28;44810;-87
2022/07/10 03:55:29;;;;;;;;;6.50;3.25;;;;;15.61;100.00;102264.22;4977043;28;45011;-87
2022/07/10 03:57:55;;;;;;;;;7.50;4.75;;;;;15.63;100.00;102270.38;4985074;28;45172;-87
2022/07/10 04:00:22;;;;;;;;;5.40;3.40;;;;;15.61;100.00;102262.41;4975282;28;45259;-86
2022/07/10 04:02:53;;;;;;;;;4.60;3.80;;;;;15.61;100.00;102261.53;4968952;28;44914;-86
2022/07/10 04:05:20;;;;;;;;;5.60;3.00;;;;;15.61;100.00;102266.91;4963533;28;44849;-86
2022/07/10 04:07:45;;;;;;;;;4.00;2.20;;;;;15.60;100.00;102270.53;4962339;28;45277;-86
2022/07/10 04:10:11;;;;;;;;;7.50;5.00;;;;;15.63;100.00;102262.31;4960260;28;45292;-87
2022/07/10 04:12:36;;;;;;;;;4.50;4.50;;;;;15.70;100.00;102262.81;4962653;28;44833;-88
2022/07/10 04:15:02;;;;;;;;;1.00;1.00;;;;;15.73;100.00;102260.81;4962909;28;45288;-88
2022/07/10 04:17:29;;;;;;;;;5.00;5.00;;;;;15.85;100.00;102272.53;4962044;28;45360;-88
2022/07/10 04:19:54;;;;;;;;;2.20;2.20;;;;;15.94;100.00;102271.94;4960658;28;45543;-88
2022/07/10 04:22:19;;;;;;;;;5.00;5.00;;;;;16.05;100.00;102271.25;4960331;28;44912;-85
2022/07/10 04:24:45;;;;;;;;;3.00;2.25;;;;;16.08;100.00;102269.22;4954020;28;45311;-88
2022/07/10 04:27:11;;;;;;;;;4.00;4.00;;;;;16.12;100.00;102269.91;4949946;28;45075;-88
2022/07/10 04:29:36;;;;;;;;;5.50;3.75;;;;;16.19;100.00;102273.88;4944306;28;44736;-88
2022/07/10 04:32:02;;;;;;;;;4.00;4.00;;;;;16.26;100.00;102274.34;4945875;28;45344;-88
2022/07/10 04:34:27;;;;;;;;;3.00;2.50;;;;;16.30;100.00;102275.88;4943110;28;44912;-88
2022/07/10 04:36:53;;;;;;;;;7.00;5.25;;;;;16.40;100.00;102268.94;4958708;28;45412;-88
2022/07/10 04:39:18;;;;;;;;;4.00;4.00;;;;;16.38;100.00;102268.16;4945416;28;44768;-87
2022/07/10 04:41:44;;;;;;;;;6.50;5.75;;;;;16.39;100.00;102269.88;4942280;28;44685;-87
2022/07/10 04:44:10;;;;;;;;;2.50;2.50;;;;;16.41;100.00;102270.63;4959777;28;44816;-88
2022/07/10 04:46:35;;;;;;;;;5.75;4.00;;;;;16.48;100.00;102271.94;4944101;28;45325;-87
2022/07/10 04:49:00;;;;;;;;;6.00;4.00;;;;;16.62;100.00;102277.22;4959954;28;44575;-86
2022/07/10 04:51:26;;;;;;;;;4.25;4.00;;;;;16.71;100.00;102267.69;4945870;28;44716;-87
2022/07/10 04:53:52;;;;;;;;;7.20;5.80;;;;;16.75;100.00;102273.75;4947295;28;44847;-87
2022/07/10 04:56:17;;;;;;;;;2.50;2.50;;;;;16.84;100.00;102273.97;4961519;28;45270;-87
2022/07/10 04:58:43;;;;;;;;;3.00;3.00;;;;;16.92;100.00;102274.31;4946449;28;44610;-87
2022/07/10 05:01:08;;;;;;;;;1.50;1.50;;;;;17.05;100.00;102274.31;4948170;28;44727;-87
2022/07/10 05:03:39;;;;;;;;;6.25;5.00;;;;;17.11;100.00;102263.13;4946819;28;44968;-87
2022/07/10 05:06:05;;;;;;;;;3.00;2.40;;;;;17.18;100.00;102264.44;4945250;28;46843;-87
2022/07/10 05:08:30;;;;;;;;;5.00;3.00;;;;;17.25;100.00;102266.69;4946372;28;44785;-87
2022/07/10 05:10:55;;;;;;;;;6.00;4.00;;;;;17.33;100.00;102270.56;4969121;28;44647;-87
2022/07/10 05:13:21;;;;;;;;;3.25;3.25;;;;;17.42;100.00;102269.03;4958771;28;44793;-87
2022/07/10 05:15:47;;;;;;;;;6.25;4.25;;;;;17.46;100.00;102271.41;4957661;28;45074;-87
2022/07/10 05:18:12;;;;;;;;;2.50;2.00;;;;;17.47;100.00;102269.56;4951969;28;44764;-91
2022/07/10 05:20:42;;;;;;;;;6.25;4.00;;;;;17.43;100.00;102278.81;4957852;28;44844;-93
2022/07/10 05:23:08;;;;;;;;;5.40;3.40;;;;;17.54;100.00;102257.41;4960621;28;44752;-91
2022/07/10 05:25:33;;;;;;;;;5.50;5.50;;;;;17.63;100.00;102272.00;4960846;28;45152;-91
2022/07/10 05:27:58;;;;;;;;;4.25;3.00;;;;;17.73;100.00;102268.56;4976522;28;44661;-91
2022/07/10 05:30:26;;;;;;;;;2.50;2.50;;;;;17.72;100.00;102272.19;4956204;28;44786;-92
2022/07/10 05:32:55;;;;;;;;;4.20;4.20;;;;;17.89;100.00;102275.50;4972591;28;44871;-92
2022/07/10 05:35:21;;;;;;;;;6.40;3.80;;;;;18.11;100.00;102277.50;4951562;28;45004;-92
2022/07/10 05:37:47;;;;;;;;;4.60;3.80;;;;;18.18;100.00;102268.84;4956894;28;45319;-91
2022/07/10 05:40:12;;;;;;;;;4.00;3.75;;;;;18.35;100.00;102267.56;4939719;28;44860;-90
2022/07/10 05:42:38;;;;;;;;;5.00;3.50;;;;;18.56;100.00;102269.59;4971141;28;44815;-91
2022/07/10 05:45:05;;;;;;;;;5.25;3.75;;;;;18.73;100.00;102267.38;4963159;28;45016;-90
2022/07/10 05:47:31;;;;;;;;;6.20;4.00;;;;;18.92;100.00;102274.03;4962275;28;44736;-91
2022/07/10 05:49:56;;;;;;;;;5.40;3.80;;;;;19.09;100.00;102275.41;4962122;28;44733;-91
2022/07/10 05:52:22;;;;;;;;;3.00;3.00;;;;;19.17;100.00;102271.13;4953390;28;44821;-93
2022/07/10 05:54:48;;;;;;;;;2.20;2.20;;;;;19.36;100.00;102275.94;4952990;28;45181;-92
2022/07/10 05:57:15;;;;;;;;;5.00;3.20;;;;;19.55;100.00;102279.84;4955718;28;44737;-92
2022/07/10 05:59:40;;;;;;;;;4.75;4.00;;;;;19.70;100.00;102279.50;4971210;28;44689;-93
2022/07/10 06:02:06;;;;;;;;;4.25;3.00;;;;;19.93;100.00;102279.47;4956545;28;44828;-90
2022/07/10 06:04:31;;;;;;;;;3.00;3.00;;;;;20.09;100.00;102287.16;4962702;28;44963;-90
2022/07/10 06:06:57;;;;;;;;;5.50;3.75;;;;;19.90;100.00;102285.09;4974140;28;44842;-92
2022/07/10 06:09:23;;;;;;;;;5.75;4.00;;;;;19.82;100.00;102285.72;4971155;28;44924;-91
2022/07/10 06:11:49;;;;;;;;;4.20;4.20;;;;;19.75;100.00;102281.81;4972940;28;44913;-92
2022/07/10 06:14:16;;;;;;;;;3.00;3.00;;;;;19.69;100.00;102288.56;4967845;28;45286;-94
2022/07/10 06:16:41;;;;;;;;;6.80;3.00;;;;;19.80;100.00;102292.25;4965147;28;44715;-91
2022/07/10 06:19:07;;;;;;;;;5.00;5.00;;;;;19.63;100.00;102283.69;4951735;28;44662;-93
2022/07/10 06:21:33;;;;;;;;;3.25;3.25;;;;;19.62;100.00;102283.78;4950759;28;44888;-93
2022/07/10 06:23:58;;;;;;;;;3.00;3.00;;;;;19.68;100.00;102284.16;4950941;28;45395;-93
2022/07/10 06:26:25;;;;;;;;;3.00;3.00;;;;;19.71;100.00;102278.50;4954825;28;44796;-91
2022/07/10 06:28:51;;;;;;;;;4.00;2.25;;;;;19.68;100.00;102275.22;4953041;28;44720;-92
2022/07/10 06:31:16;;;;;;;;;4.25;3.00;;;;;19.94;100.00;102276.63;4965772;28;44852;-93
2022/07/10 06:33:43;;;;;;;;;6.25;4.00;;;;;20.15;100.00;102273.16;4948537;28;45575;-92
2022/07/10 06:36:09;;;;;;;;;3.00;2.40;;;;;20.46;100.00;102271.44;4954947;28;44700;-92
2022/07/10 06:38:34;;;;;;;;;4.00;4.00;;;;;20.57;100.00;102266.03;4984719;28;44738;-93
2022/07/10 06:41:00;;;;;;;;;0.00;0.00;;;;;20.52;100.00;102260.16;4956901;28;44868;-92
2022/07/10 06:43:27;;;;;;;;;3.00;3.00;;;;;20.35;100.00;102271.47;4971597;28;45264;-92
2022/07/10 06:45:55;;;;;;;;;4.00;4.00;;;;;20.39;100.00;102270.25;4958291;28;44660;-93
2022/07/10 06:48:20;;;;;;;;;4.40;4.00;;;;;20.40;100.00;102277.34;4975593;28;44725;-93
2022/07/10 06:50:46;;;;;;;;;1.50;1.25;;;;;20.54;100.00;102267.13;4981174;28;44847;-92
2022/07/10 06:53:11;;;;;;;;;2.00;2.00;;;;;20.79;100.00;102270.44;4970514;28;44964;-92
2022/07/10 06:55:39;;;;;;;;;2.75;2.75;;;;;20.85;100.00;102266.38;4965721;28;44744;-92
2022/07/10 06:58:05;;;;;;;;;2.00;2.00;;;;;20.84;100.00;102261.94;4949721;28;44711;-93
2022/07/10 07:00:30;;;;;;;;;2.00;2.00;;;;;20.84;100.00;102278.13;4954749;28;44841;-93
2022/07/10 07:02:56;;;;;;;;;3.50;3.50;;;;;20.83;100.00;102271.88;4952710;28;46819;-92
2022/07/10 07:05:27;;;;;;;;;3.75;3.00;;;;;20.78;100.00;102269.56;4972519;28;44647;-93
2022/07/10 07:07:53;;;;;;;;;3.40;2.00;;;;;20.69;100.00;102269.50;4954990;28;44784;-93
2022/07/10 07:10:19;;;;;;;;;5.20;4.60;;;;;20.66;100.00;102276.03;4953633;28;44747;-94
2022/07/10 07:12:44;;;;;;;;;3.50;2.25;;;;;20.50;100.00;102275.59;4949881;28;46542;-93
2022/07/10 07:15:10;;;;;;;;;0.75;0.75;;;;;20.59;100.00;102269.44;4967617;28;44671;-91
2022/07/10 07:23:10;;;;;;;;;1.20;1.20;;;;;21.13;100.00;102275.63;4964364;28;44936;-89
2022/07/10 07:25:37;;;;;;;;;2.75;2.00;;;;;21.21;100.00;102273.97;4962539;28;44835;-89
2022/07/10 07:28:03;;;;;;;;;1.20;1.20;;;;;21.38;100.00;102267.13;4980619;28;45393;-87
2022/07/10 07:30:29;;;;;;;;;3.00;3.00;;;;;21.57;100.00;102273.59;4968230;28;45478;-89
2022/07/10 07:32:55;;;;;;;;;1.80;1.60;;;;;21.58;100.00;102273.44;4967995;28;45077;-88
2022/07/10 07:35:20;;;;;;;;;4.25;3.00;;;;;21.59;100.00;102267.03;4966568;28;44689;-89
2022/07/10 07:37:48;;;;;;;;;1.00;1.00;;;;;21.57;100.00;102266.34;4967887;28;44821;-89
2022/07/10 07:40:16;;;;;;;;;2.80;2.00;;;;;21.70;100.00;102258.81;4969114;28;45421;-88
2022/07/10 07:42:42;;;;;;;;;4.00;4.00;;;;;21.69;100.00;102256.25;4976465;28;46665;-87
2022/07/10 07:45:09;;;;;;;;;2.60;2.20;;;;;21.80;100.00;102256.13;4981265;28;44736;-88
2022/07/10 07:47:46;;;;;;;;;2.60;2.60;;;;;21.74;100.00;102248.56;4971414;28;44777;-89
2022/07/10 07:50:17;;;;;;;;;2.80;2.00;;;;;21.86;100.00;102247.47;4979491;28;44838;-88
2022/07/10 07:52:44;;;;;;;;;3.40;2.60;;;;;21.61;100.00;102238.00;4961645;28;45491;-88
2022/07/10 07:55:10;;;;;;;;;1.20;1.20;;;;;21.72;100.00;102243.31;4963648;28;44849;-89
2022/07/10 07:57:36;;;;;;;;;5.25;3.00;;;;;21.72;100.00;102243.31;4962028;28;44776;-87
2022/07/10 08:00:05;;;;;;;;;3.00;3.00;;;;;21.79;100.00;102243.59;4966999;28;44962;-88
2022/07/10 08:02:30;;;;;;;;;3.20;2.00;;;;;21.70;100.00;102239.88;4988282;28;45482;-89
2022/07/10 08:04:55;;;;;;;;;3.00;3.00;;;;;21.47;100.00;102254.63;4968799;28;44732;-88
2022/07/10 08:07:21;;;;;;;;;4.00;4.00;;;;;21.14;100.00;102253.88;4966243;28;44888;-87
2022/07/10 08:09:46;;;;;;;;;3.50;1.25;;;;;20.94;100.00;102252.91;4981408;28;45427;-88
2022/07/10 08:12:12;;;;;;;;;3.50;3.00;;;;;20.92;100.00;102260.28;4967147;28;45332;-88
2022/07/10 08:14:38;;;;;;;;;4.00;2.50;;;;;21.00;100.00;102246.13;4966127;28;44764;-88
2022/07/10 08:17:04;;;;;;;;;2.20;1.60;;;;;20.89;99.52;102260.56;4963984;28;44729;-88
2022/07/10 08:19:30;;;;;;;;;2.00;2.00;;;;;20.94;100.00;102230.44;4964786;28;44903;-90
2022/07/10 08:21:55;;;;;;;;;4.60;3.20;;;;;20.97;99.98;102239.13;4962713;28;45669;-88
2022/07/10 08:24:20;;;;;;;;;2.00;2.00;;;;;21.01;99.17;102228.91;4965630;28;45251;-88
2022/07/10 08:26:46;;;;;;;;;0.75;0.75;;;;;21.15;98.10;102235.81;4964004;28;45186;-88
2022/07/10 08:29:11;;;;;;;;;2.00;2.00;;;;;21.02;97.57;102231.47;4966421;28;44786;-88
2022/07/10 08:31:39;;;;;;;;;3.00;1.25;;;;;21.15;98.77;102235.81;4965567;28;45185;-87
2022/07/10 08:34:05;;;;;;;;;1.00;1.00;;;;;21.30;98.60;102229.03;4986286;28;45421;-87
2022/07/10 08:36:30;;;;;;;;;2.25;1.75;;;;;21.44;97.38;102231.41;4977870;28;44735;-91
2022/07/10 08:38:56;;;;;;;;;4.00;3.00;;;;;21.38;95.71;102237.38;4977730;28;44924;-92
2022/07/10 08:41:26;;;;;;;;;5.00;3.00;;;;;21.50;96.28;102246.22;4971573;28;45002;-88
2022/07/10 08:43:52;;;;;;;;;3.00;3.00;;;;;21.46;95.87;102253.75;4964628;28;44900;-88
2022/07/10 08:46:18;;;;;;;;;2.00;2.00;;;;;21.42;95.20;102243.34;4970250;28;44678;-88
2022/07/10 08:48:52;;;;;;;;;3.75;2.00;;;;;21.58;94.92;102235.59;4971099;28;44974;-88
2022/07/10 08:51:36;;;;;;;;;5.20;3.20;;;;;21.72;94.31;102226.22;4971546;28;45437;-87
2022/07/10 08:54:03;;;;;;;;;4.40;2.60;;;;;21.88;93.01;102234.66;4972250;28;44680;-87
2022/07/10 08:56:30;;;;;;;;;5.60;4.00;;;;;21.92;92.14;102225.25;4971969;28;45171;-88
2022/07/10 08:58:56;;;;;;;;;2.00;2.00;;;;;22.06;89.58;102235.69;4967367;28;44859;-88
2022/07/10 09:01:23;;;;;;;;;5.00;5.00;;;;;22.03;91.75;102224.28;4964747;28;45493;-88
2022/07/10 09:03:52;;;;;;;;;6.80;6.00;;;;;21.94;89.28;102225.09;4967481;28;44756;-87
2022/07/10 09:06:18;;;;;;;;;3.80;3.00;;;;;21.98;87.18;102224.69;4966156;28;44947;-87
2022/07/10 09:09:04;;;;;;;;;3.50;1.50;;;;;21.93;87.38;102236.94;4968908;28;44806;-88
2022/07/10 09:11:30;;;;;;;;;6.00;4.40;;;;;21.80;89.45;102218.25;4966766;28;45327;-89
2022/07/10 09:14:02;;;;;;;;;4.80;4.00;;;;;21.91;89.15;102210.03;4975774;28;45243;-87
2022/07/10 09:16:30;;;;;;;;;1.20;1.20;;;;;22.07;86.99;102199.50;4975404;28;45271;-87
2022/07/10 09:18:56;;;;;;;;;8.40;5.40;;;;;22.19;88.20;102202.06;4965992;28;44836;-88
2022/07/10 09:21:22;;;;;;;;;1.80;1.00;;;;;22.08;85.90;102194.94;4946777;28;45053;-88
2022/07/10 09:23:49;;;;;;;;;2.00;2.00;;;;;22.07;84.50;102214.88;4948155;28;44722;-88
2022/07/10 09:26:15;;;;;;;;;1.40;1.40;;;;;22.02;84.80;102198.22;4969625;28;44778;-89
2022/07/10 09:28:40;;;;;;;;;2.40;2.40;;;;;;;;4950978;28;44637;-88
2022/07/10 09:31:06;;;;;;;;;1.00;1.00;;;;;22.01;85.07;102191.09;4950089;28;45665;-88
2022/07/10 09:33:34;;;;;;;;;3.00;1.50;;;;;22.17;85.36;102187.84;4950045;28;45239;-89
2022/07/10 09:36:07;;;;;;;;;2.60;2.00;;;;;22.40;86.65;102185.69;4948710;28;44797;-89
2022/07/10 09:38:45;;;;;;;;;3.00;3.00;;;;;22.50;85.65;102200.06;4961269;28;45191;-88
2022/07/10 09:41:16;;;;;;;;;0.00;0.00;;;;;22.41;85.54;102190.09;4951111;28;45077;-88
2022/07/10 09:44:00;;;;;;;;;3.00;3.00;;;;;22.29;84.95;102192.13;4963854;28;44670;-88
2022/07/10 09:46:46;;;;;;;;;1.80;1.80;;;;;22.43;83.57;102191.66;4948990;28;44843;-90
2022/07/10 09:49:14;;;;;;;;;1.60;1.60;;;;;22.42;83.76;102195.38;4945991;28;44888;-88
2022/07/10 09:51:45;;;;;;;;;2.20;2.20;;;;;22.51;82.74;102199.06;4952931;28;45424;-88
2022/07/10 09:54:11;;;;;;;;;2.00;2.00;;;;;22.68;82.75;102202.91;4950136;28;44841;-88
2022/07/10 09:56:48;;;;;;;;;3.00;1.75;;;;;22.64;82.60;102202.31;4944869;28;45618;-88
2022/07/10 09:59:20;;;;;;;;;1.00;1.00;;;;;22.72;83.31;102180.75;4944852;28;44777;-89
2022/07/10 10:01:49;;;;;;;;;3.00;3.00;;;;;22.94;82.31;102187.72;4942044;28;45594;-88
2022/07/10 10:04:16;;;;;;;;;2.40;2.40;;;;;23.00;81.70;102188.97;4942601;28;44835;-88
2022/07/10 10:06:43;;;;;;;;;6.00;2.80;;;;;23.00;81.09;102184.41;4944974;28;44786;-88
2022/07/10 10:09:26;;;;;;;;;2.40;2.40;;;;;23.18;81.72;102179.06;4962969;28;45343;-87
2022/07/10 10:12:02;;;;;;;;;2.20;1.40;;;;;23.31;81.42;102184.16;4951874;28;45148;-88
2022/07/10 10:14:28;;;;;;;;;2.80;2.20;;;;;23.40;79.42;102180.50;4950512;28;44859;-88
2022/07/10 10:16:55;;;;;;;;;1.80;1.80;;;;;23.52;80.12;102183.88;4968869;28;44764;-91
2022/07/10 10:22:09;;;;;;;;;2.00;2.00;;;;;23.42;79.86;102172.25;4960074;28;44944;-91
2022/07/10 10:24:39;;;;;;;;;7.60;4.80;;;;;23.45;78.63;102167.38;4963534;28;44776;-89
2022/07/10 10:27:06;;;;;;;;;4.40;3.20;;;;;23.24;78.16;102156.75;4968176;28;44739;-92
2022/07/10 10:29:35;;;;;;;;;1.40;1.20;;;;;23.24;79.31;102159.47;4981232;28;44880;-91
2022/07/10 10:32:01;;;;;;;;;1.00;1.00;;;;;23.21;78.95;102159.78;4949055;28;45295;-90
2022/07/10 10:34:55;;;;;;;;;0.80;0.80;;;;;23.22;78.75;102157.94;4965033;28;44750;-90
2022/07/10 10:37:49;;;;;;;;;2.00;2.00;;;;;23.20;80.14;102157.22;4981105;28;44732;-92
2022/07/10 10:40:34;;;;;;;;;2.00;2.00;;;;;23.31;80.11;102152.47;4923576;28;44965;-92
2022/07/10 10:43:17;;;;;;;;;2.20;2.00;;;;;23.52;81.19;102146.75;4899662;29;44956;-92
2022/07/10 10:45:47;;;;;;;;;2.00;1.00;;;;;23.66;81.52;102148.13;4920153;29;44765;-91
2022/07/10 10:48:17;;;;;;;;;4.40;2.00;;;;;23.85;80.60;102138.97;4904159;28;44754;-92
2022/07/10 10:51:01;;;;;;;;;4.00;2.00;;;;;23.97;79.19;102151.28;4901161;29;44862;-91
2022/07/10 10:53:50;;;;;;;;;2.40;2.00;;;;;23.93;78.46;102130.88;4900718;29;45199;-92
2022/07/10 10:56:23;;;;;;;;;2.00;2.00;;;;;23.99;78.22;102143.00;4915936;29;44894;-92
2022/07/10 10:59:00;;;;;;;;;3.00;3.00;;;;;23.97;78.69;102132.28;4923247;28;44839;-91
2022/07/10 11:01:28;;;;;;;;;1.40;1.40;;;;;23.84;78.68;102131.84;4890609;29;44971;-93
2022/07/10 11:04:08;;;;;;;;;1.20;1.20;;;;;23.93;79.57;102105.59;4906818;29;45302;-92
2022/07/10 11:06:41;;;;;;;;;2.00;1.00;;;;;24.07;78.57;102116.75;4898573;29;44684;-91
2022/07/10 11:09:43;;;;;;;;;1.00;1.00;;;;;24.13;76.37;102115.31;4902149;28;44667;-92
2022/07/10 11:12:14;;;;;;;;;2.00;2.00;;;;;24.30;77.82;102110.81;4921110;28;44747;-91
2022/07/10 11:14:59;;;;;;;;;2.40;1.80;;;;;24.35;76.92;102111.19;4878214;29;45267;-92
2022/07/10 11:22:58;;;;;;;;;1.20;1.20;;;;;24.70;77.24;102103.97;1446393;23;46029;-91
2022/07/10 11:28:21;;;;;;;;;1.80;1.80;;;;;24.58;75.37;102090.66;5026856;23;44843;-92
2022/07/10 11:30:51;;;;;;;;;1.40;1.40;;;;;24.63;75.75;102090.19;4966446;28;44650;-93
2022/07/10 11:33:18;;;;;;;;;2.00;2.00;;;;;24.74;78.15;102089.03;4965108;28;44821;-94
2022/07/10 11:35:48;;;;;;;;;5.00;5.00;;;;;24.68;76.45;102097.84;4955815;28;45196;-93
2022/07/10 11:38:26;;;;;;;;;4.00;2.60;;;;;24.50;76.28;102095.19;4959071;28;44732;-92
2022/07/10 11:40:54;;;;;;;;;2.20;2.20;;;;;24.50;76.28;102082.44;4967773;28;44720;-93